sensor_id;sensor_type;location;lat;lon;timestamp;pressure;altitude;pressure_sealevel;temperature;humidity
39267;BME280;24967;51.154;13.812;2023-04-26T00:01:33;99343.41;;;6.67;66.46
39267;BME280;24967;51.154;13.812;2023-04-26T00:03:59;99339.91;;;6.67;66.39
39267;BME280;24967;51.154;13.812;2023-04-26T00:06:27;99341.06;;;6.74;66.49
39267;BME280;24967;51.154;13.812;2023-04-26T00:08:53;99343.94;;;6.92;66.11
39267;BME280;24967;51.154;13.812;2023-04-26T00:11:21;99347.59;;;7.00;66.09
39267;BME280;24967;51.154;13.812;2023-04-26T00:13:47;99344.94;;;7.00;65.76
39267;BME280;24967;51.154;13.812;2023-04-26T00:16:14;99340.50;;;6.70;65.84
39267;BME280;24967;51.154;13.812;2023-04-26T00:18:40;99347.06;;;6.55;66.52
39267;BME280;24967;51.154;13.812;2023-04-26T00:21:07;99349.25;;;6.71;66.21
39267;BME280;24967;51.154;13.812;2023-04-26T00:23:33;99359.50;;;6.64;67.05
39267;BME280;24967;51.154;13.812;2023-04-26T00:26:00;99355.84;;;6.55;66.81
39267;BME280;24967;51.154;13.812;2023-04-26T00:28:29;99358.28;;;6.47;67.39
39267;BME280;24967;51.154;13.812;2023-04-26T00:30:55;99361.78;;;6.48;67.58
39267;BME280;24967;51.154;13.812;2023-04-26T00:33:21;99358.88;;;6.30;68.23
39267;BME280;24967;51.154;13.812;2023-04-26T00:35:48;99355.94;;;6.12;68.99
39267;BME280;24967;51.154;13.812;2023-04-26T00:38:14;99353.41;;;6.10;68.72
39267;BME280;24967;51.154;13.812;2023-04-26T00:40:41;99351.25;;;6.15;69.08
39267;BME280;24967;51.154;13.812;2023-04-26T00:43:07;99365.91;;;6.29;68.45
39267;BME280;24967;51.154;13.812;2023-04-26T00:45:35;99358.25;;;6.26;68.55
39267;BME280;24967;51.154;13.812;2023-04-26T00:48:02;99364.28;;;6.49;67.65
39267;BME280;24967;51.154;13.812;2023-04-26T00:50:30;99351.78;;;6.30;67.88
39267;BME280;24967;51.154;13.812;2023-04-26T00:52:56;99364.31;;;6.38;67.98
39267;BME280;24967;51.154;13.812;2023-04-26T00:55:24;99362.91;;;6.34;68.41
39267;BME280;24967;51.154;13.812;2023-04-26T00:57:51;99365.34;;;6.26;68.01
39267;BME280;24967;51.154;13.812;2023-04-26T01:00:18;99371.47;;;6.26;68.20
39267;BME280;24967;51.154;13.812;2023-04-26T01:02:46;99365.34;;;6.26;68.34
39267;BME280;24967;51.154;13.812;2023-04-26T01:05:12;99372.91;;;6.30;67.96
39267;BME280;24967;51.154;13.812;2023-04-26T01:07:39;99369.50;;;6.39;67.67
39267;BME280;24967;51.154;13.812;2023-04-26T01:10:06;99378.03;;;6.32;67.63
39267;BME280;24967;51.154;13.812;2023-04-26T01:12:33;99372.19;;;5.85;69.75
39267;BME280;24967;51.154;13.812;2023-04-26T01:15:02;99373.88;;;5.97;69.58
39267;BME280;24967;51.154;13.812;2023-04-26T01:17:29;99377.66;;;6.15;69.55
39267;BME280;24967;51.154;13.812;2023-04-26T01:19:57;99377.22;;;5.99;69.62
39267;BME280;24967;51.154;13.812;2023-04-26T01:22:23;99360.94;;;5.94;70.16
39267;BME280;24967;51.154;13.812;2023-04-26T01:24:53;99373.22;;;6.05;69.58
39267;BME280;24967;51.154;13.812;2023-04-26T01:27:20;99369.78;;;5.93;70.39
39267;BME280;24967;51.154;13.812;2023-04-26T01:29:47;99378.91;;;5.89;70.79
39267;BME280;24967;51.154;13.812;2023-04-26T01:32:13;99380.09;;;5.96;70.51
39267;BME280;24967;51.154;13.812;2023-04-26T01:34:39;99380.31;;;6.04;70.26
39267;BME280;24967;51.154;13.812;2023-04-26T01:37:06;99383.47;;;5.98;70.21
39267;BME280;24967;51.154;13.812;2023-04-26T01:39:32;99379.88;;;5.88;70.72
39267;BME280;24967;51.154;13.812;2023-04-26T01:42:02;99379.03;;;5.87;71.41
39267;BME280;24967;51.154;13.812;2023-04-26T01:44:28;99388.63;;;6.00;70.71
39267;BME280;24967;51.154;13.812;2023-04-26T01:46:55;99384.69;;;5.71;71.36
39267;BME280;24967;51.154;13.812;2023-04-26T01:49:22;99384.44;;;5.74;71.48
39267;BME280;24967;51.154;13.812;2023-04-26T01:51:48;99382.28;;;5.80;71.56
39267;BME280;24967;51.154;13.812;2023-04-26T01:54:14;99381.34;;;5.69;71.93
39267;BME280;24967;51.154;13.812;2023-04-26T01:56:41;99384.81;;;5.81;71.89
39267;BME280;24967;51.154;13.812;2023-04-26T01:59:09;99389.38;;;5.79;71.18
39267;BME280;24967;51.154;13.812;2023-04-26T02:01:35;99388.06;;;5.73;71.71
39267;BME280;24967;51.154;13.812;2023-04-26T02:04:01;99389.72;;;5.74;71.77
39267;BME280;24967;51.154;13.812;2023-04-26T02:06:28;99383.84;;;5.71;71.75
39267;BME280;24967;51.154;13.812;2023-04-26T02:08:55;99389.94;;;5.83;71.46
39267;BME280;24967;51.154;13.812;2023-04-26T02:11:22;99395.28;;;5.60;71.97
39267;BME280;24967;51.154;13.812;2023-04-26T02:13:48;99389.38;;;5.68;71.92
39267;BME280;24967;51.154;13.812;2023-04-26T02:16:16;99394.75;;;5.78;72.06
39267;BME280;24967;51.154;13.812;2023-04-26T02:18:42;99393.22;;;5.64;72.16
39267;BME280;24967;51.154;13.812;2023-04-26T02:21:10;99395.88;;;5.64;72.07
39267;BME280;24967;51.154;13.812;2023-04-26T02:23:36;99401.97;;;5.64;72.51
39267;BME280;24967;51.154;13.812;2023-04-26T02:26:03;99401.38;;;5.61;72.87
39267;BME280;24967;51.154;13.812;2023-04-26T02:28:29;99395.84;;;5.75;72.25
39267;BME280;24967;51.154;13.812;2023-04-26T02:30:56;99399.09;;;5.67;72.07
39267;BME280;24967;51.154;13.812;2023-04-26T02:33:24;99393.31;;;5.73;72.21
39267;BME280;24967;51.154;13.812;2023-04-26T02:35:50;99392.91;;;5.46;72.76
39267;BME280;24967;51.154;13.812;2023-04-26T02:38:16;99398.16;;;5.57;72.64
39267;BME280;24967;51.154;13.812;2023-04-26T02:40:43;99393.16;;;5.86;72.04
39267;BME280;24967;51.154;13.812;2023-04-26T02:43:09;99392.84;;;5.80;71.46
39267;BME280;24967;51.154;13.812;2023-04-26T02:45:40;99387.97;;;5.64;72.00
39267;BME280;24967;51.154;13.812;2023-04-26T02:48:06;99394.06;;;5.64;71.72
39267;BME280;24967;51.154;13.812;2023-04-26T02:50:34;99384.81;;;5.81;71.44
39267;BME280;24967;51.154;13.812;2023-04-26T02:53:01;99389.59;;;5.76;71.00
39267;BME280;24967;51.154;13.812;2023-04-26T02:55:27;99393.22;;;5.64;71.39
39267;BME280;24967;51.154;13.812;2023-04-26T02:57:54;99386.06;;;5.43;71.85
39267;BME280;24967;51.154;13.812;2023-04-26T03:00:20;99394.56;;;5.58;71.79
39267;BME280;24967;51.154;13.812;2023-04-26T03:02:47;99398.28;;;5.44;71.93
39267;BME280;24967;51.154;13.812;2023-04-26T03:05:14;99392.56;;;5.39;72.07
39267;BME280;24967;51.154;13.812;2023-04-26T03:07:42;99392.88;;;5.57;71.86
39267;BME280;24967;51.154;13.812;2023-04-26T03:10:09;99400.94;;;5.33;72.03
39267;BME280;24967;51.154;13.812;2023-04-26T03:12:35;99402.34;;;5.26;72.44
39267;BME280;24967;51.154;13.812;2023-04-26T03:15:02;99402.13;;;5.51;71.87
39267;BME280;24967;51.154;13.812;2023-04-26T03:17:28;99404.28;;;5.58;71.36
39267;BME280;24967;51.154;13.812;2023-04-26T03:19:55;99399.56;;;5.72;71.06
39267;BME280;24967;51.154;13.812;2023-04-26T03:22:21;99408.22;;;5.52;71.15
39267;BME280;24967;51.154;13.812;2023-04-26T03:24:49;99411.69;;;5.53;71.54
39267;BME280;24967;51.154;13.812;2023-04-26T03:27:15;99413.00;;;5.69;71.02
39267;BME280;24967;51.154;13.812;2023-04-26T03:29:42;99407.63;;;5.37;71.31
39267;BME280;24967;51.154;13.812;2023-04-26T03:32:08;99409.53;;;5.35;71.63
39267;BME280;24967;51.154;13.812;2023-04-26T03:34:35;99413.63;;;5.28;71.66
39267;BME280;24967;51.154;13.812;2023-04-26T03:37:01;99411.84;;;5.28;71.96
39267;BME280;24967;51.154;13.812;2023-04-26T03:39:28;99410.97;;;4.94;72.97
39267;BME280;24967;51.154;13.812;2023-04-26T03:41:56;99418.19;;;5.37;71.84
39267;BME280;24967;51.154;13.812;2023-04-26T03:44:22;99410.75;;;5.20;71.79
39267;BME280;24967;51.154;13.812;2023-04-26T03:46:49;99419.47;;;4.98;72.61
39267;BME280;24967;51.154;13.812;2023-04-26T03:49:15;99418.28;;;5.13;72.19
39267;BME280;24967;51.154;13.812;2023-04-26T03:51:42;99411.59;;;5.09;72.48
39267;BME280;24967;51.154;13.812;2023-04-26T03:54:08;99421.16;;;4.88;72.76
39267;BME280;24967;51.154;13.812;2023-04-26T03:56:35;99428.59;;;5.05;72.46
39267;BME280;24967;51.154;13.812;2023-04-26T03:59:03;99425.81;;;4.95;72.61
39267;BME280;24967;51.154;13.812;2023-04-26T04:01:29;99427.81;;;4.69;73.24
39267;BME280;24967;51.154;13.812;2023-04-26T04:03:56;99426.72;;;4.61;73.87
39267;BME280;24967;51.154;13.812;2023-04-26T04:06:22;99429.34;;;4.72;73.21
39267;BME280;24967;51.154;13.812;2023-04-26T04:08:49;99433.56;;;4.63;73.55
39267;BME280;24967;51.154;13.812;2023-04-26T04:11:15;99428.16;;;4.65;73.61
39267;BME280;24967;51.154;13.812;2023-04-26T04:13:42;99436.50;;;4.58;73.74
39267;BME280;24967;51.154;13.812;2023-04-26T04:16:09;99434.25;;;4.54;73.86
39267;BME280;24967;51.154;13.812;2023-04-26T04:18:36;99433.38;;;4.53;73.88
39267;BME280;24967;51.154;13.812;2023-04-26T04:21:03;99437.63;;;4.67;73.52
39267;BME280;24967;51.154;13.812;2023-04-26T04:23:29;99436.00;;;4.53;73.69
39267;BME280;24967;51.154;13.812;2023-04-26T04:25:56;99434.38;;;4.64;73.73
39267;BME280;24967;51.154;13.812;2023-04-26T04:28:22;99436.41;;;4.60;73.20
39267;BME280;24967;51.154;13.812;2023-04-26T04:30:48;99443.94;;;4.65;73.54
39267;BME280;24967;51.154;13.812;2023-04-26T04:33:16;99441.44;;;4.63;73.44
39267;BME280;24967;51.154;13.812;2023-04-26T04:35:43;99440.63;;;4.74;73.09
39267;BME280;24967;51.154;13.812;2023-04-26T04:38:09;99443.66;;;4.92;72.75
39267;BME280;24967;51.154;13.812;2023-04-26T04:40:36;99438.03;;;4.85;72.47
39267;BME280;24967;51.154;13.812;2023-04-26T04:43:02;99444.22;;;4.84;72.40
39267;BME280;24967;51.154;13.812;2023-04-26T04:45:29;99444.69;;;4.67;73.13
39267;BME280;24967;51.154;13.812;2023-04-26T04:47:55;99445.16;;;4.72;72.63
39267;BME280;24967;51.154;13.812;2023-04-26T04:50:23;99455.97;;;4.80;72.94
39267;BME280;24967;51.154;13.812;2023-04-26T04:52:50;99454.41;;;4.77;72.67
39267;BME280;24967;51.154;13.812;2023-04-26T04:55:16;99454.94;;;4.94;72.17
39267;BME280;24967;51.154;13.812;2023-04-26T04:57:43;99456.59;;;4.95;72.29
39267;BME280;24967;51.154;13.812;2023-04-26T05:00:10;99462.13;;;5.03;72.48
39267;BME280;24967;51.154;13.812;2023-04-26T05:02:37;99463.22;;;5.12;72.56
39267;BME280;24967;51.154;13.812;2023-04-26T05:05:04;99464.53;;;5.06;71.87
39267;BME280;24967;51.154;13.812;2023-04-26T05:07:32;99476.75;;;5.18;71.72
39267;BME280;24967;51.154;13.812;2023-04-26T05:09:59;99473.53;;;5.37;71.64
39267;BME280;24967;51.154;13.812;2023-04-26T05:12:26;99469.13;;;5.49;71.15
39267;BME280;24967;51.154;13.812;2023-04-26T05:14:52;99473.19;;;5.31;71.63
39267;BME280;24967;51.154;13.812;2023-04-26T05:17:19;99459.88;;;5.32;71.65
39267;BME280;24967;51.154;13.812;2023-04-26T05:19:45;99468.41;;;5.58;70.80
39267;BME280;24967;51.154;13.812;2023-04-26T05:22:12;99472.25;;;5.54;71.53
39267;BME280;24967;51.154;13.812;2023-04-26T05:24:44;99478.47;;;5.76;70.44
39267;BME280;24967;51.154;13.812;2023-04-26T05:27:10;99480.50;;;6.06;69.25
39267;BME280;24967;51.154;13.812;2023-04-26T05:29:37;99479.78;;;6.68;68.49
39267;BME280;24967;51.154;13.812;2023-04-26T05:32:03;99476.53;;;6.43;66.65
39267;BME280;24967;51.154;13.812;2023-04-26T05:34:30;99487.31;;;6.08;68.05
39267;BME280;24967;51.154;13.812;2023-04-26T05:36:57;99492.13;;;6.14;68.80
39267;BME280;24967;51.154;13.812;2023-04-26T05:39:23;99491.38;;;6.56;67.71
39267;BME280;24967;51.154;13.812;2023-04-26T05:41:51;99492.38;;;6.11;68.08
39267;BME280;24967;51.154;13.812;2023-04-26T05:44:17;99493.94;;;6.35;67.57
39267;BME280;24967;51.154;13.812;2023-04-26T05:46:44;99493.22;;;6.76;65.92
39267;BME280;24967;51.154;13.812;2023-04-26T05:49:11;99498.63;;;6.96;65.26
39267;BME280;24967;51.154;13.812;2023-04-26T05:51:37;99504.03;;;7.36;65.07
39267;BME280;24967;51.154;13.812;2023-04-26T05:54:04;99506.25;;;7.10;64.06
39267;BME280;24967;51.154;13.812;2023-04-26T05:56:30;99506.63;;;7.05;64.59
39267;BME280;24967;51.154;13.812;2023-04-26T05:58:58;99507.63;;;7.35;63.49
39267;BME280;24967;51.154;13.812;2023-04-26T06:01:25;99505.66;;;7.27;63.17
39267;BME280;24967;51.154;13.812;2023-04-26T06:03:51;99505.09;;;7.03;63.96
39267;BME280;24967;51.154;13.812;2023-04-26T06:06:18;99506.28;;;6.57;64.90
39267;BME280;24967;51.154;13.812;2023-04-26T06:08:45;99503.16;;;6.52;66.07
39267;BME280;24967;51.154;13.812;2023-04-26T06:11:11;99506.91;;;6.38;66.41
39267;BME280;24967;51.154;13.812;2023-04-26T06:13:38;99504.81;;;6.53;66.87
39267;BME280;24967;51.154;13.812;2023-04-26T06:16:06;99512.63;;;6.54;66.26
39267;BME280;24967;51.154;13.812;2023-04-26T06:18:33;99502.88;;;6.66;66.03
39267;BME280;24967;51.154;13.812;2023-04-26T06:20:59;99506.09;;;6.70;66.05
39267;BME280;24967;51.154;13.812;2023-04-26T06:23:26;99502.88;;;7.08;65.90
39267;BME280;24967;51.154;13.812;2023-04-26T06:26:02;99506.56;;;7.17;64.94
39267;BME280;24967;51.154;13.812;2023-04-26T06:28:48;99514.81;;;7.02;64.39
39267;BME280;24967;51.154;13.812;2023-04-26T06:31:27;99510.81;;;6.87;64.10
39267;BME280;24967;51.154;13.812;2023-04-26T06:33:53;99514.47;;;7.17;64.17
39267;BME280;24967;51.154;13.812;2023-04-26T06:36:20;99514.63;;;7.36;63.96
39267;BME280;24967;51.154;13.812;2023-04-26T06:38:46;99517.47;;;7.23;64.69
39267;BME280;24967;51.154;13.812;2023-04-26T06:41:13;99518.09;;;6.95;63.79
39267;BME280;24967;51.154;13.812;2023-04-26T06:43:39;99513.50;;;6.43;65.46
39267;BME280;24967;51.154;13.812;2023-04-26T06:46:06;99519.50;;;6.46;66.50
39267;BME280;24967;51.154;13.812;2023-04-26T06:48:33;99512.41;;;6.46;66.38
39267;BME280;24967;51.154;13.812;2023-04-26T06:51:04;99522.97;;;6.46;66.74
39267;BME280;24967;51.154;13.812;2023-04-26T06:53:30;99521.25;;;6.56;66.28
39267;BME280;24967;51.154;13.812;2023-04-26T06:55:57;99518.22;;;6.72;67.06
39267;BME280;24967;51.154;13.812;2023-04-26T06:58:23;99519.00;;;6.84;65.51
39267;BME280;24967;51.154;13.812;2023-04-26T07:00:49;99523.03;;;6.67;66.00
39267;BME280;24967;51.154;13.812;2023-04-26T07:03:16;99531.88;;;6.77;64.66
39267;BME280;24967;51.154;13.812;2023-04-26T07:05:44;99532.63;;;6.68;65.75
39267;BME280;24967;51.154;13.812;2023-04-26T07:08:10;99527.31;;;6.79;65.75
39267;BME280;24967;51.154;13.812;2023-04-26T07:10:38;99519.56;;;6.67;65.06
39267;BME280;24967;51.154;13.812;2023-04-26T07:13:04;99524.41;;;6.82;64.76
39267;BME280;24967;51.154;13.812;2023-04-26T07:15:31;99527.19;;;6.37;64.62
39267;BME280;24967;51.154;13.812;2023-04-26T07:17:57;99532.94;;;6.54;64.00
39267;BME280;24967;51.154;13.812;2023-04-26T07:20:24;99531.38;;;6.51;64.75
39267;BME280;24967;51.154;13.812;2023-04-26T07:22:52;99532.91;;;6.86;64.85
39267;BME280;24967;51.154;13.812;2023-04-26T07:25:18;99536.84;;;6.92;65.57
39267;BME280;24967;51.154;13.812;2023-04-26T07:27:45;99537.38;;;7.06;64.44
39267;BME280;24967;51.154;13.812;2023-04-26T07:30:12;99522.09;;;7.10;64.22
39267;BME280;24967;51.154;13.812;2023-04-26T07:32:38;99541.00;;;7.05;63.40
39267;BME280;24967;51.154;13.812;2023-04-26T07:35:05;99537.91;;;7.00;63.00
39267;BME280;24967;51.154;13.812;2023-04-26T07:37:32;99529.31;;;7.29;62.30
39267;BME280;24967;51.154;13.812;2023-04-26T07:40:00;99535.47;;;7.08;61.77
39267;BME280;24967;51.154;13.812;2023-04-26T07:42:29;99537.31;;;7.60;61.90
39267;BME280;24967;51.154;13.812;2023-04-26T07:44:55;99532.06;;;7.69;61.29
39267;BME280;24967;51.154;13.812;2023-04-26T07:47:22;99542.88;;;7.97;61.44
39267;BME280;24967;51.154;13.812;2023-04-26T07:49:51;99544.38;;;7.59;59.92
39267;BME280;24967;51.154;13.812;2023-04-26T07:52:18;99531.00;;;7.51;59.27
39267;BME280;24967;51.154;13.812;2023-04-26T07:54:44;99541.13;;;7.76;58.51
39267;BME280;24967;51.154;13.812;2023-04-26T07:57:13;99531.50;;;7.45;59.48
39267;BME280;24967;51.154;13.812;2023-04-26T07:59:39;99535.31;;;7.52;59.69
39267;BME280;24967;51.154;13.812;2023-04-26T08:02:06;99539.28;;;7.67;58.97
39267;BME280;24967;51.154;13.812;2023-04-26T08:04:33;99530.63;;;7.96;58.95
39267;BME280;24967;51.154;13.812;2023-04-26T08:06:59;99531.19;;;7.99;58.54
39267;BME280;24967;51.154;13.812;2023-04-26T08:09:26;99535.22;;;7.63;57.53
39267;BME280;24967;51.154;13.812;2023-04-26T08:11:53;99529.75;;;7.55;57.10
39267;BME280;24967;51.154;13.812;2023-04-26T08:14:21;99531.06;;;8.01;56.44
39267;BME280;24967;51.154;13.812;2023-04-26T08:16:47;99539.25;;;7.98;55.41
39267;BME280;24967;51.154;13.812;2023-04-26T08:19:14;99542.25;;;7.84;55.01
39267;BME280;24967;51.154;13.812;2023-04-26T08:21:40;99547.16;;;7.57;54.37
39267;BME280;24967;51.154;13.812;2023-04-26T08:24:07;99538.22;;;7.79;55.17
39267;BME280;24967;51.154;13.812;2023-04-26T08:26:33;99542.25;;;8.14;54.69
39267;BME280;24967;51.154;13.812;2023-04-26T08:29:00;99533.63;;;8.22;52.71
39267;BME280;24967;51.154;13.812;2023-04-26T08:31:27;99536.81;;;8.16;53.73
39267;BME280;24967;51.154;13.812;2023-04-26T08:33:54;99532.81;;;8.31;55.85
39267;BME280;24967;51.154;13.812;2023-04-26T08:36:20;99527.72;;;8.49;55.10
39267;BME280;24967;51.154;13.812;2023-04-26T08:38:46;99532.31;;;8.47;53.46
39267;BME280;24967;51.154;13.812;2023-04-26T08:41:14;99530.41;;;8.68;53.89
39267;BME280;24967;51.154;13.812;2023-04-26T08:43:45;99525.38;;;8.75;52.17
39267;BME280;24967;51.154;13.812;2023-04-26T08:46:14;99527.31;;;8.63;51.66
39267;BME280;24967;51.154;13.812;2023-04-26T08:48:48;99533.06;;;8.68;52.65
39267;BME280;24967;51.154;13.812;2023-04-26T08:51:17;99538.81;;;8.33;50.80
39267;BME280;24967;51.154;13.812;2023-04-26T08:53:44;99539.38;;;8.37;52.25
39267;BME280;24967;51.154;13.812;2023-04-26T08:56:12;99525.22;;;8.96;52.99
39267;BME280;24967;51.154;13.812;2023-04-26T08:58:39;99533.19;;;8.96;51.36
39267;BME280;24967;51.154;13.812;2023-04-26T09:01:07;99523.28;;;8.88;50.33
39267;BME280;24967;51.154;13.812;2023-04-26T09:03:34;99533.59;;;8.82;49.71
39267;BME280;24967;51.154;13.812;2023-04-26T09:06:02;99532.75;;;8.91;51.15
39267;BME280;24967;51.154;13.812;2023-04-26T09:08:33;99534.00;;;9.16;51.25
39267;BME280;24967;51.154;13.812;2023-04-26T09:11:02;99536.63;;;9.35;50.75
39267;BME280;24967;51.154;13.812;2023-04-26T09:13:28;99536.66;;;9.06;49.54
39267;BME280;24967;51.154;13.812;2023-04-26T09:15:55;99546.03;;;8.81;49.59
39267;BME280;24967;51.154;13.812;2023-04-26T09:18:22;99546.56;;;8.85;51.38
39267;BME280;24967;51.154;13.812;2023-04-26T09:21:03;99541.53;;;8.91;49.95
39267;BME280;24967;51.154;13.812;2023-04-26T09:23:30;99540.16;;;9.07;48.60
39267;BME280;24967;51.154;13.812;2023-04-26T09:26:15;99534.72;;;9.08;49.73
39267;BME280;24967;51.154;13.812;2023-04-26T09:28:42;99535.44;;;9.57;49.35
39267;BME280;24967;51.154;13.812;2023-04-26T09:31:10;99541.66;;;9.38;49.49
39267;BME280;24967;51.154;13.812;2023-04-26T09:33:56;99537.94;;;9.59;48.59
39267;BME280;24967;51.154;13.812;2023-04-26T09:36:24;99536.63;;;9.35;48.15
39267;BME280;24967;51.154;13.812;2023-04-26T09:38:51;99544.91;;;8.84;49.95
39267;BME280;24967;51.154;13.812;2023-04-26T09:41:18;99544.47;;;9.17;50.36
39267;BME280;24967;51.154;13.812;2023-04-26T09:43:45;99545.88;;;9.12;49.42
39267;BME280;24967;51.154;13.812;2023-04-26T09:46:21;99538.34;;;9.17;47.24
39267;BME280;24967;51.154;13.812;2023-04-26T09:48:59;99536.09;;;9.03;45.97
39267;BME280;24967;51.154;13.812;2023-04-26T09:51:27;99541.13;;;9.06;46.07
39267;BME280;24967;51.154;13.812;2023-04-26T09:53:54;99537.91;;;8.83;47.52
39267;BME280;24967;51.154;13.812;2023-04-26T09:56:20;99538.75;;;8.74;47.19
39267;BME280;24967;51.154;13.812;2023-04-26T09:58:55;99534.72;;;8.69;45.02
39267;BME280;24967;51.154;13.812;2023-04-26T10:01:23;99535.38;;;9.10;44.80
39267;BME280;24967;51.154;13.812;2023-04-26T10:03:51;99527.06;;;9.52;44.00
39267;BME280;24967;51.154;13.812;2023-04-26T10:06:18;99524.94;;;10.03;43.89
39267;BME280;24967;51.154;13.812;2023-04-26T10:08:45;99528.47;;;10.21;43.75
39267;BME280;24967;51.154;13.812;2023-04-26T10:11:12;99530.84;;;9.97;43.24
39267;BME280;24967;51.154;13.812;2023-04-26T10:13:39;99533.22;;;9.62;44.13
39267;BME280;24967;51.154;13.812;2023-04-26T10:16:07;99540.72;;;9.20;45.04
39267;BME280;24967;51.154;13.812;2023-04-26T10:18:35;99535.66;;;9.27;45.83
39267;BME280;24967;51.154;13.812;2023-04-26T10:21:13;99534.44;;;9.02;45.66
39267;BME280;24967;51.154;13.812;2023-04-26T10:23:42;99534.59;;;8.81;44.88
39267;BME280;24967;51.154;13.812;2023-04-26T10:29:10;99539.72;;;9.78;45.12
39267;BME280;24967;51.154;13.812;2023-04-26T10:34:42;99539.31;;;9.73;48.00
39267;BME280;24967;51.154;13.812;2023-04-26T10:37:10;99528.47;;;9.94;49.41
39267;BME280;24967;51.154;13.812;2023-04-26T10:39:37;99528.47;;;9.94;46.67
39267;BME280;24967;51.154;13.812;2023-04-26T10:42:16;99535.13;;;9.70;47.05
39267;BME280;24967;51.154;13.812;2023-04-26T10:44:48;99540.88;;;9.66;47.09
39267;BME280;24967;51.154;13.812;2023-04-26T10:47:24;99530.00;;;9.49;46.38
39267;BME280;24967;51.154;13.812;2023-04-26T10:49:51;99530.50;;;9.35;44.76
39267;BME280;24967;51.154;13.812;2023-04-26T10:52:18;99540.16;;;8.87;45.51
39267;BME280;24967;51.154;13.812;2023-04-26T10:54:52;99547.13;;;9.08;47.87
39267;BME280;24967;51.154;13.812;2023-04-26T10:57:19;99537.91;;;9.12;47.47
39267;BME280;24967;51.154;13.812;2023-04-26T11:00:19;99533.81;;;9.37;47.66
39267;BME280;24967;51.154;13.812;2023-04-26T11:02:55;99535.63;;;9.46;46.42
39267;BME280;24967;51.154;13.812;2023-04-26T11:05:32;99538.31;;;9.74;44.29
39267;BME280;24967;51.154;13.812;2023-04-26T11:08:04;99527.78;;;10.19;45.33
39267;BME280;24967;51.154;13.812;2023-04-26T11:10:31;99518.97;;;10.19;44.52
39267;BME280;24967;51.154;13.812;2023-04-26T11:13:01;99523.34;;;10.10;45.02
39267;BME280;24967;51.154;13.812;2023-04-26T11:15:30;99527.63;;;9.56;46.79
39267;BME280;24967;51.154;13.812;2023-04-26T11:17:57;99537.44;;;9.46;47.25
39267;BME280;24967;51.154;13.812;2023-04-26T11:20:27;99533.78;;;9.47;46.44
39267;BME280;24967;51.154;13.812;2023-04-26T11:22:54;99532.34;;;9.62;46.22
39267;BME280;24967;51.154;13.812;2023-04-26T11:25:20;99542.09;;;9.71;46.68
39267;BME280;24967;51.154;13.812;2023-04-26T11:27:47;99534.47;;;9.58;45.09
39267;BME280;24967;51.154;13.812;2023-04-26T11:30:17;99536.97;;;9.60;45.28
39267;BME280;24967;51.154;13.812;2023-04-26T11:32:45;99537.72;;;9.43;43.70
39267;BME280;24967;51.154;13.812;2023-04-26T11:35:12;99542.47;;;9.39;44.55
39267;BME280;24967;51.154;13.812;2023-04-26T11:37:39;99541.50;;;9.40;46.09
39267;BME280;24967;51.154;13.812;2023-04-26T11:40:09;99538.03;;;9.30;46.92
39267;BME280;24967;51.154;13.812;2023-04-26T11:42:36;99543.34;;;9.77;47.73
39267;BME280;24967;51.154;13.812;2023-04-26T11:45:03;99534.38;;;10.15;46.60
39267;BME280;24967;51.154;13.812;2023-04-26T11:47:33;99539.56;;;10.07;46.35
39267;BME280;24967;51.154;13.812;2023-04-26T11:50:01;99537.69;;;9.99;47.28
39267;BME280;24967;51.154;13.812;2023-04-26T11:52:28;99540.09;;;10.20;46.22
39267;BME280;24967;51.154;13.812;2023-04-26T11:55:03;99538.28;;;10.48;46.55
39267;BME280;24967;51.154;13.812;2023-04-26T11:57:30;99540.94;;;10.48;46.22
39267;BME280;24967;51.154;13.812;2023-04-26T12:00:09;99548.13;;;10.11;46.14
39267;BME280;24967;51.154;13.812;2023-04-26T12:02:36;99561.91;;;9.86;46.42
39267;BME280;24967;51.154;13.812;2023-04-26T12:05:05;99558.97;;;9.90;46.42
39267;BME280;24967;51.154;13.812;2023-04-26T12:07:34;99553.16;;;10.04;46.16
39267;BME280;24967;51.154;13.812;2023-04-26T12:10:15;99559.19;;;9.69;45.74
39267;BME280;24967;51.154;13.812;2023-04-26T12:12:48;99557.81;;;9.55;46.33
39267;BME280;24967;51.154;13.812;2023-04-26T12:15:16;99572.66;;;9.18;46.39
39267;BME280;24967;51.154;13.812;2023-04-26T12:17:55;99567.63;;;9.25;45.83
39267;BME280;24967;51.154;13.812;2023-04-26T12:20:30;99567.72;;;9.53;46.63
39267;BME280;24967;51.154;13.812;2023-04-26T12:22:59;99558.91;;;9.52;45.72
39267;BME280;24967;51.154;13.812;2023-04-26T12:25:26;99551.22;;;9.59;45.74
39267;BME280;24967;51.154;13.812;2023-04-26T12:27:52;99554.69;;;9.69;46.14
39267;BME280;24967;51.154;13.812;2023-04-26T12:30:19;99550.47;;;9.76;45.86
39267;BME280;24967;51.154;13.812;2023-04-26T12:32:46;99557.28;;;9.89;45.73
39267;BME280;24967;51.154;13.812;2023-04-26T12:35:12;99551.72;;;9.82;47.45
39267;BME280;24967;51.154;13.812;2023-04-26T12:37:40;99546.31;;;10.01;46.68
39267;BME280;24967;51.154;13.812;2023-04-26T12:40:08;99548.97;;;10.01;46.01
39267;BME280;24967;51.154;13.812;2023-04-26T12:42:34;99540.75;;;10.22;46.81
39267;BME280;24967;51.154;13.812;2023-04-26T12:45:01;99544.22;;;10.05;45.85
39267;BME280;24967;51.154;13.812;2023-04-26T12:47:28;99545.47;;;10.01;46.44
39267;BME280;24967;51.154;13.812;2023-04-26T12:49:55;99535.13;;;9.70;45.28
39267;BME280;24967;51.154;13.812;2023-04-26T12:52:23;99548.94;;;10.11;46.88
39267;BME280;24967;51.154;13.812;2023-04-26T12:54:51;99543.41;;;10.22;45.01
39267;BME280;24967;51.154;13.812;2023-04-26T12:57:18;99546.00;;;10.42;45.56
39267;BME280;24967;51.154;13.812;2023-04-26T12:59:44;99541.03;;;10.74;46.34
39267;BME280;24967;51.154;13.812;2023-04-26T13:02:11;99542.41;;;10.96;46.41
39267;BME280;24967;51.154;13.812;2023-04-26T13:04:37;99559.03;;;10.98;44.98
39267;BME280;24967;51.154;13.812;2023-04-26T13:07:04;99549.53;;;10.78;44.87
39267;BME280;24967;51.154;13.812;2023-04-26T13:09:31;99544.00;;;10.89;44.28